Time;durP1;ratioP1;P1;durP2;ratioP2;P2;SDS_P1;SDS_P2;PMS_P1;PMS_P2;Temp;Humidity;BMP_temperature;BMP_pressure;BME280_temperature;BME280_humidity;BME280_pressure;Samples;Min_cycle;Max_cycle;Signal;HPM_P1;HPM_P2
2021/06/04 00:01:51;;;;;;;5.80;5.28;;;;;25.30;101947.00;;;;5094377;28;20209;-77
2021/06/04 00:04:18;;;;;;;5.78;4.55;;;;;25.30;101951.00;;;;5088277;28;20206;-77
2021/06/04 00:06:45;;;;;;;5.63;4.38;;;;;25.20;101953.00;;;;5107943;28;20212;-77
2021/06/04 00:09:14;;;;;;;6.93;4.72;;;;;25.20;101947.00;;;;5098843;28;20657;-77
2021/06/04 00:11:43;;;;;;;5.72;4.47;;;;;25.20;101944.00;;;;5087248;28;20769;-77
2021/06/04 00:14:13;;;;;;;5.38;4.80;;;;;25.10;101947.00;;;;5097708;28;20201;-77
2021/06/04 00:16:43;;;;;;;5.82;5.32;;;;;25.10;101943.00;;;;5106940;28;20243;-77
2021/06/04 00:19:13;;;;;;;6.10;4.97;;;;;25.10;101949.00;;;;5108476;28;20202;-77
2021/06/04 00:21:43;;;;;;;5.50;4.85;;;;;25.00;101942.00;;;;5107774;28;20607;-77
2021/06/04 00:24:11;;;;;;;7.93;5.45;;;;;25.00;101941.00;;;;5108144;28;20205;-77
2021/06/04 00:26:40;;;;;;;5.82;4.80;;;;;25.00;101945.00;;;;5088316;28;20201;-77
2021/06/04 00:29:08;;;;;;;5.00;4.43;;;;;25.00;101938.00;;;;5106737;28;20201;-77
2021/06/04 00:31:35;;;;;;;4.70;4.20;;;;;24.90;101929.00;;;;5108066;28;20237;-77
2021/06/04 00:34:05;;;;;;;5.43;4.75;;;;;24.90;101930.00;;;;5108345;28;20197;-77
2021/06/04 00:36:33;;;;;;;6.18;4.90;;;;;24.90;101923.00;;;;5101778;28;20198;-77
2021/06/04 00:39:01;;;;;;;5.57;4.68;;;;;24.90;101925.00;;;;5090140;28;20206;-77
2021/06/04 00:41:32;;;;;;;6.45;5.30;;;;;24.80;101918.00;;;;5103735;28;20201;-77
2021/06/04 00:43:59;;;;;;;8.10;4.57;;;;;24.80;101927.00;;;;5110958;28;20206;-77
2021/06/04 00:46:27;;;;;;;6.00;4.55;;;;;24.80;101923.00;;;;5090801;28;20210;-76
2021/06/04 00:48:55;;;;;;;6.05;4.60;;;;;24.80;101925.00;;;;5109349;28;20663;-77
2021/06/04 00:51:28;;;;;;;6.45;4.63;;;;;24.70;101926.00;;;;5111453;28;20213;-77
2021/06/04 00:53:55;;;;;;;5.50;4.85;;;;;24.70;101934.00;;;;5111664;28;20209;-77
2021/06/04 00:56:25;;;;;;;6.38;5.43;;;;;24.70;101935.00;;;;5096314;28;20197;-77
2021/06/04 00:58:52;;;;;;;5.70;5.05;;;;;24.70;101931.00;;;;5090991;28;20191;-77
2021/06/04 01:01:22;;;;;;;7.53;5.80;;;;;24.60;101928.00;;;;5096258;28;20215;-77
2021/06/04 01:03:54;;;;;;;9.10;5.63;;;;;24.60;101934.00;;;;5111353;28;20201;-77
2021/06/04 01:06:32;;;;;;;5.85;5.25;;;;;24.50;101925.00;;;;5110629;28;20720;-77
2021/06/04 01:09:34;;;;;;;6.20;4.28;;;;;24.40;101934.00;;;;5102742;28;20209;-77
2021/06/04 01:12:27;;;;;;;7.25;4.70;;;;;24.40;101937.00;;;;5093442;28;20220;-77
2021/06/04 01:15:11;;;;;;;5.93;5.10;;;;;24.30;101934.00;;;;5090384;28;20198;-77
2021/06/04 01:17:45;;;;;;;7.68;5.20;;;;;24.40;101936.00;;;;5106092;28;20621;-77
2021/06/04 01:20:16;;;;;;;5.68;5.18;;;;;24.40;101937.00;;;;5110471;28;20232;-77
2021/06/04 01:23:04;;;;;;;6.10;5.50;;;;;24.30;101935.00;;;;5109733;28;20663;-77
2021/06/04 01:25:43;;;;;;;5.95;4.90;;;;;24.20;101942.00;;;;5110163;28;21015;-77
2021/06/04 01:28:15;;;;;;;6.28;5.18;;;;;24.20;101943.00;;;;5105852;28;20682;-77
2021/06/04 01:30:48;;;;;;;5.18;4.55;;;;;24.20;101942.00;;;;5089255;28;20229;-77
2021/06/04 01:33:19;;;;;;;6.50;4.75;;;;;24.20;101940.00;;;;5089435;28;20253;-77
2021/06/04 01:35:51;;;;;;;6.72;5.15;;;;;24.20;101941.00;;;;5093412;28;20194;-77
2021/06/04 01:38:21;;;;;;;7.47;5.47;;;;;24.10;101939.00;;;;5094815;28;20217;-77
2021/06/04 01:40:52;;;;;;;6.50;5.43;;;;;24.10;101936.00;;;;5110066;28;20190;-77
2021/06/04 01:43:23;;;;;;;6.32;5.32;;;;;24.10;101938.00;;;;5108651;28;20239;-77
2021/06/04 01:45:54;;;;;;;5.68;5.07;;;;;24.00;101940.00;;;;5108902;28;20202;-77
2021/06/04 01:48:25;;;;;;;7.03;5.57;;;;;24.00;101936.00;;;;5092444;28;20618;-77
2021/06/04 01:50:57;;;;;;;7.30;5.65;;;;;24.00;101935.00;;;;5100552;28;20193;-77
2021/06/04 01:53:27;;;;;;;7.18;5.63;;;;;24.00;101934.00;;;;5109993;28;20221;-77
2021/06/04 01:55:59;;;;;;;6.50;5.85;;;;;23.90;101925.00;;;;5108877;28;20209;-77
2021/06/04 01:58:29;;;;;;;6.78;5.60;;;;;23.90;101925.00;;;;5109961;28;20190;-77
2021/06/04 02:01:02;;;;;;;7.03;5.43;;;;;23.80;101930.00;;;;5109549;28;20586;-77
2021/06/04 02:03:30;;;;;;;9.00;6.22;;;;;23.90;101924.00;;;;5090037;28;20197;-77
2021/06/04 02:05:58;;;;;;;6.22;5.55;;;;;23.80;101922.00;;;;5108423;28;20250;-76
2021/06/04 02:08:29;;;;;;;5.95;5.35;;;;;23.80;101917.00;;;;5108865;28;20243;-76
2021/06/04 02:10:57;;;;;;;6.50;5.55;;;;;23.80;101906.00;;;;5110267;28;20209;-77
2021/06/04 02:13:25;;;;;;;8.98;5.78;;;;;23.80;101918.00;;;;5108582;28;20221;-77
2021/06/04 02:16:05;;;;;;;7.65;6.13;;;;;23.70;101908.00;;;;5100421;28;20197;-77
2021/06/04 02:18:40;;;;;;;5.97;5.35;;;;;23.60;101908.00;;;;5089386;28;20251;-77
2021/06/04 02:21:14;;;;;;;5.88;5.25;;;;;23.60;101904.00;;;;5104193;28;20194;-77
2021/06/04 02:23:47;;;;;;;5.88;5.25;;;;;23.60;101907.00;;;;5110045;28;20208;-77
2021/06/04 02:26:20;;;;;;;6.93;5.90;;;;;23.60;101907.00;;;;5100338;28;20231;-77
2021/06/04 02:28:53;;;;;;;7.07;6.05;;;;;23.50;101909.00;;;;5109021;27;20330;-77
2021/06/04 02:31:29;;;;;;;6.40;5.80;;;;;23.50;101911.00;;;;5100153;28;20230;-77
2021/06/04 02:34:03;;;;;;;6.07;5.47;;;;;23.50;101918.00;;;;5088693;28;20230;-77
2021/06/04 02:36:32;;;;;;;7.25;5.78;;;;;23.50;101919.00;;;;5088773;28;20209;-78
2021/06/04 02:39:05;;;;;;;7.43;5.93;;;;;23.40;101916.00;;;;5088982;28;20202;-77
2021/06/04 02:41:37;;;;;;;5.75;5.13;;;;;23.40;101921.00;;;;5089111;28;20218;-77
2021/06/04 02:44:08;;;;;;;7.68;5.75;;;;;23.40;101917.00;;;;5089082;28;20191;-78
2021/06/04 02:46:39;;;;;;;7.35;5.65;;;;;23.40;101928.00;;;;5108406;28;20217;-78
2021/06/04 02:49:08;;;;;;;6.97;5.47;;;;;23.30;101918.00;;;;5108572;28;20198;-77
2021/06/04 02:51:38;;;;;;;6.65;5.63;;;;;23.30;101924.00;;;;5108253;28;20239;-77
2021/06/04 02:54:08;;;;;;;7.43;6.30;;;;;23.30;101922.00;;;;5108824;28;20622;-78
2021/06/04 02:56:40;;;;;;;7.55;6.43;;;;;23.20;101926.00;;;;5103791;28;20686;-78
2021/06/04 02:59:11;;;;;;;8.35;6.32;;;;;23.20;101926.00;;;;5101597;28;20187;-78
2021/06/04 03:01:41;;;;;;;7.55;5.65;;;;;23.20;101939.00;;;;5107510;28;20752;-77
2021/06/04 03:04:09;;;;;;;6.85;6.15;;;;;23.20;101940.00;;;;5105436;28;20198;-77
2021/06/04 03:06:39;;;;;;;9.50;6.80;;;;;23.10;101938.00;;;;5107921;28;20198;-78
2021/06/04 03:09:11;;;;;;;8.52;6.53;;;;;23.10;101935.00;;;;5108400;28;20254;-78
2021/06/04 03:11:43;;;;;;;6.95;6.05;;;;;23.00;101940.00;;;;5107557;28;20213;-78
2021/06/04 03:14:12;;;;;;;7.43;5.72;;;;;23.00;101944.00;;;;5102170;28;20977;-77
2021/06/04 03:16:39;;;;;;;10.05;6.57;;;;;23.00;101943.00;;;;5102138;28;20458;-77
2021/06/04 03:19:10;;;;;;;7.15;5.78;;;;;23.00;101949.00;;;;5089539;28;20267;-77
2021/06/04 03:21:39;;;;;;;7.40;6.38;;;;;22.90;101952.00;;;;5104434;28;20205;-77
2021/06/04 03:24:09;;;;;;;7.00;6.18;;;;;22.90;101958.00;;;;5108814;28;20246;-77
2021/06/04 03:26:37;;;;;;;7.97;6.25;;;;;22.90;101954.00;;;;5100289;28;20185;-77
2021/06/04 03:29:08;;;;;;;7.97;6.50;;;;;22.80;101961.00;;;;5102875;28;20691;-77
2021/06/04 03:31:38;;;;;;;9.02;6.03;;;;;22.80;101967.00;;;;5097976;28;20221;-78
2021/06/04 03:34:06;;;;;;;7.55;5.63;;;;;22.80;101969.00;;;;5108040;28;20197;-77
2021/06/04 03:36:35;;;;;;;5.90;5.30;;;;;22.80;101965.00;;;;5109121;28;20414;-77
2021/06/04 03:39:05;;;;;;;7.63;6.07;;;;;22.80;101960.00;;;;5107594;28;20311;-77
2021/06/04 03:41:34;;;;;;;7.35;6.00;;;;;22.80;101963.00;;;;5100485;28;20206;-77
2021/06/04 03:44:03;;;;;;;6.20;5.60;;;;;22.70;101972.00;;;;5088579;28;20582;-77
2021/06/04 03:46:31;;;;;;;10.23;6.30;;;;;22.70;101969.00;;;;5087666;28;20209;-77
2021/06/04 03:48:58;;;;;;;7.40;5.80;;;;;22.70;101968.00;;;;5097944;28;20197;-78
2021/06/04 03:51:31;;;;;;;8.30;5.78;;;;;22.70;101967.00;;;;5107991;28;20181;-77
2021/06/04 03:53:58;;;;;;;6.65;5.88;;;;;22.70;101974.00;;;;5106864;28;20254;-77
2021/06/04 03:56:26;;;;;;;8.00;6.05;;;;;22.70;101973.00;;;;5102827;28;20201;-77
2021/06/04 03:58:55;;;;;;;8.32;6.60;;;;;22.60;101976.00;;;;5108637;28;20198;-77
2021/06/04 04:01:25;;;;;;;6.78;5.65;;;;;22.60;101984.00;;;;5106555;28;20204;-77
2021/06/04 04:03:54;;;;;;;6.53;5.93;;;;;22.60;101972.00;;;;5107536;28;20583;-78
2021/06/04 04:06:21;;;;;;;9.18;6.18;;;;;22.60;101971.00;;;;5107363;28;20254;-77
2021/06/04 04:08:48;;;;;;;7.68;6.00;;;;;22.60;101975.00;;;;5090957;28;20587;-78
2021/06/04 04:11:15;;;;;;;9.32;6.57;;;;;22.60;101973.00;;;;5107807;28;20214;-78
2021/06/04 04:13:42;;;;;;;7.18;5.88;;;;;22.60;101979.00;;;;5110724;28;20213;-78
2021/06/04 04:16:09;;;;;;;6.60;5.97;;;;;22.60;101977.00;;;;5110294;28;20668;-77
2021/06/04 04:18:38;;;;;;;7.72;6.20;;;;;22.60;101976.00;;;;5099253;28;20259;-78
2021/06/04 04:21:10;;;;;;;8.27;5.65;;;;;22.60;101975.00;;;;5100804;28;20229;-77
2021/06/04 04:23:41;;;;;;;10.63;5.93;;;;;22.60;101972.00;;;;5111697;28;20655;-77
2021/06/04 04:26:09;;;;;;;7.35;5.68;;;;;22.60;101973.00;;;;5108613;28;20245;-77
2021/06/04 04:28:38;;;;;;;7.68;6.38;;;;;22.60;101965.00;;;;5111154;28;20206;-78
2021/06/04 04:31:09;;;;;;;6.65;5.43;;;;;22.60;101970.00;;;;5111690;28;20671;-78
2021/06/04 04:33:36;;;;;;;9.25;5.82;;;;;22.70;101968.00;;;;5109840;28;20730;-77
2021/06/04 04:36:03;;;;;;;7.47;5.72;;;;;22.70;101966.00;;;;5109675;28;20193;-77
2021/06/04 04:38:32;;;;;;;10.50;6.47;;;;;22.70;101970.00;;;;5101997;28;20239;-77
2021/06/04 04:41:01;;;;;;;7.88;5.93;;;;;22.70;101966.00;;;;5091083;28;20206;-78
2021/06/04 04:43:30;;;;;;;6.82;5.82;;;;;22.80;101969.00;;;;5090782;28;20210;-77
2021/06/04 04:45:56;;;;;;;8.90;6.40;;;;;22.80;101974.00;;;;5095896;28;20202;-78
2021/06/04 04:48:24;;;;;;;7.72;6.53;;;;;22.80;101971.00;;;;5121330;27;20202;-78
2021/06/04 04:50:51;;;;;;;6.32;5.50;;;;;22.90;101980.00;;;;5110720;28;20251;-77
2021/06/04 04:53:19;;;;;;;6.82;5.65;;;;;22.90;101986.00;;;;5110189;28;20224;-77
2021/06/04 04:55:47;;;;;;;8.07;5.45;;;;;22.90;101973.00;;;;5108225;28;20694;-77
2021/06/04 04:58:14;;;;;;;6.15;5.22;;;;;23.00;101972.00;;;;5103731;28;20197;-77
2021/06/04 05:00:42;;;;;;;6.78;5.85;;;;;23.10;101971.00;;;;5108238;28;20358;-78
2021/06/04 05:03:12;;;;;;;5.85;5.32;;;;;23.10;101960.00;;;;5107099;28;20198;-77
2021/06/04 05:05:40;;;;;;;7.55;6.65;;;;;23.20;101957.00;;;;5104320;28;20208;-77
2021/06/04 05:08:07;;;;;;;7.00;5.72;;;;;23.20;101963.00;;;;5100490;28;20197;-77
2021/06/04 05:10:35;;;;;;;7.65;6.00;;;;;23.30;101967.00;;;;5106140;28;20657;-78
2021/06/04 05:13:06;;;;;;;7.32;6.30;;;;;23.30;101963.00;;;;5105582;28;20279;-78
2021/06/04 05:15:36;;;;;;;8.73;6.75;;;;;23.40;101972.00;;;;5104707;28;20205;-78
2021/06/04 05:18:04;;;;;;;8.05;6.28;;;;;23.50;101967.00;;;;5104728;28;20688;-78
2021/06/04 05:20:31;;;;;;;8.32;5.93;;;;;23.50;101973.00;;;;5102503;28;20825;-79
2021/06/04 05:22:58;;;;;;;6.63;5.45;;;;;23.60;101971.00;;;;5094153;28;20197;-78
2021/06/04 05:25:28;;;;;;;8.32;6.93;;;;;23.70;101971.00;;;;5109827;28;20721;-78
2021/06/04 05:27:55;;;;;;;8.52;6.82;;;;;23.80;101981.00;;;;5092003;28;20201;-78
2021/06/04 05:30:25;;;;;;;10.48;7.40;;;;;23.80;101981.00;;;;5090266;28;20230;-78
2021/06/04 05:32:53;;;;;;;8.75;7.25;;;;;23.90;101971.00;;;;5104769;28;20720;-78
2021/06/04 05:35:20;;;;;;;8.88;7.63;;;;;24.00;101974.00;;;;5090082;28;20667;-78
2021/06/04 05:37:47;;;;;;;9.50;8.18;;;;;24.10;101982.00;;;;5105374;28;20213;-78
2021/06/04 05:40:16;;;;;;;10.00;7.78;;;;;24.20;101974.00;;;;5107465;28;20206;-78
2021/06/04 05:42:44;;;;;;;11.95;8.60;;;;;24.20;101973.00;;;;5109935;28;20198;-78
2021/06/04 05:45:12;;;;;;;13.20;9.20;;;;;24.30;101969.00;;;;5108524;28;20224;-78
2021/06/04 05:47:40;;;;;;;14.80;11.10;;;;;24.30;101973.00;;;;5108472;28;20235;-79
2021/06/04 05:50:11;;;;;;;14.00;10.75;;;;;24.40;101965.00;;;;5106655;28;20222;-79
2021/06/04 05:52:38;;;;;;;13.35;8.63;;;;;24.40;101978.00;;;;5100840;28;20232;-78
2021/06/04 05:55:06;;;;;;;11.75;9.18;;;;;24.40;101984.00;;;;5093741;28;20642;-78
2021/06/04 05:57:33;;;;;;;14.05;10.68;;;;;24.50;101977.00;;;;5098415;28;20250;-78
2021/06/04 06:00:00;;;;;;;15.27;9.20;;;;;24.50;101984.00;;;;5110259;28;20197;-78
2021/06/04 06:02:27;;;;;;;13.80;9.20;;;;;24.50;101981.00;;;;5109456;28;20201;-78
2021/06/04 06:04:55;;;;;;;12.68;9.00;;;;;24.60;101985.00;;;;5110049;28;20201;-78
2021/06/04 06:07:21;;;;;;;18.80;12.10;;;;;24.70;101988.00;;;;5109202;28;20209;-78
2021/06/04 06:09:48;;;;;;;15.70;12.02;;;;;24.70;101987.00;;;;5109738;28;20213;-78
2021/06/04 06:12:15;;;;;;;16.17;11.02;;;;;24.80;101991.00;;;;5109767;28;20221;-78
2021/06/04 06:14:41;;;;;;;13.55;10.20;;;;;24.90;101990.00;;;;5109900;28;20678;-78
2021/06/04 06:17:08;;;;;;;12.20;9.73;;;;;24.90;101993.00;;;;5109637;28;20202;-78
2021/06/04 06:19:35;;;;;;;13.30;10.10;;;;;25.00;101995.00;;;;5109970;28;20685;-78
2021/06/04 06:22:03;;;;;;;15.13;10.52;;;;;25.10;101996.00;;;;5109772;28;20629;-78
2021/06/04 06:24:30;;;;;;;14.95;9.68;;;;;25.20;102007.00;;;;5109882;28;20205;-78
2021/06/04 06:26:57;;;;;;;12.75;9.07;;;;;25.30;102005.00;;;;5109217;28;20201;-78
2021/06/04 06:29:25;;;;;;;11.63;10.13;;;;;25.30;102004.00;;;;5109089;28;20599;-78
2021/06/04 06:31:51;;;;;;;15.32;10.10;;;;;25.40;102004.00;;;;5109643;28;20615;-78
2021/06/04 06:34:18;;;;;;;13.75;9.38;;;;;25.50;102003.00;;;;5109691;28;20639;-78
2021/06/04 06:36:46;;;;;;;14.18;9.07;;;;;25.60;102002.00;;;;5108476;28;20198;-78
2021/06/04 06:39:16;;;;;;;14.20;9.13;;;;;25.70;102013.00;;;;5108022;28;20198;-78
2021/06/04 06:41:45;;;;;;;13.68;10.25;;;;;25.80;102003.00;;;;5108625;28;20943;-78
2021/06/04 06:44:13;;;;;;;11.82;9.13;;;;;25.90;102007.00;;;;5108630;28;20204;-78
2021/06/04 06:46:41;;;;;;;14.85;9.50;;;;;26.00;102005.00;;;;5108825;28;20583;-76
2021/06/04 06:49:08;;;;;;;11.45;9.02;;;;;26.10;102000.00;;;;5105528;28;20221;-77
2021/06/04 06:51:37;;;;;;;12.18;9.73;;;;;26.20;102009.00;;;;5104525;28;20208;-77
2021/06/04 06:54:06;;;;;;;12.57;9.60;;;;;26.20;102006.00;;;;5108401;28;20605;-76
2021/06/04 06:56:35;;;;;;;12.35;9.65;;;;;26.30;102018.00;;;;5094046;28;20653;-77
2021/06/04 06:59:02;;;;;;;11.52;8.85;;;;;26.40;102018.00;;;;5098688;28;20561;-77
2021/06/04 07:01:29;;;;;;;12.70;8.90;;;;;26.50;102020.00;;;;5101782;28;20194;-77
2021/06/04 07:03:57;;;;;;;12.50;10.02;;;;;26.50;102023.00;;;;5095715;28;20214;-77
2021/06/04 07:06:26;;;;;;;12.68;9.85;;;;;26.60;102026.00;;;;5101776;28;20197;-77
2021/06/04 07:08:53;;;;;;;11.93;10.38;;;;;26.70;102016.00;;;;5097762;28;20239;-77
2021/06/04 07:11:22;;;;;;;12.07;8.90;;;;;26.80;102020.00;;;;5106086;28;20733;-78
2021/06/04 07:13:52;;;;;;;11.73;8.52;;;;;26.90;102018.00;;;;5103374;28;20225;-78
2021/06/04 07:16:20;;;;;;;12.18;8.10;;;;;27.00;102020.00;;;;5102911;28;20651;-77
2021/06/04 07:18:50;;;;;;;11.57;9.13;;;;;27.10;102019.00;;;;5101256;28;20569;-78
2021/06/04 07:21:20;;;;;;;11.52;8.38;;;;;27.20;102022.00;;;;5092274;28;20193;-77
2021/06/04 07:23:47;;;;;;;9.70;8.38;;;;;27.30;102025.00;;;;5097084;28;20282;-77
2021/06/04 07:26:14;;;;;;;14.57;8.63;;;;;27.40;102023.00;;;;5108380;28;20243;-77
2021/06/04 07:28:42;;;;;;;9.73;7.97;;;;;27.50;102021.00;;;;5094472;28;20209;-78
2021/06/04 07:31:13;;;;;;;13.20;9.85;;;;;27.60;102025.00;;;;5104029;28;20637;-78
2021/06/04 07:33:42;;;;;;;11.35;7.75;;;;;27.70;102033.00;;;;5095886;28;20222;-77
2021/06/04 07:36:14;;;;;;;12.15;9.48;;;;;27.70;102042.00;;;;5100229;28;20232;-78
2021/06/04 07:38:41;;;;;;;10.35;8.50;;;;;27.90;102041.00;;;;5098420;28;20209;-78
2021/06/04 07:41:08;;;;;;;10.80;8.35;;;;;28.00;102047.00;;;;5097939;28;20200;-77
2021/06/04 07:43:39;;;;;;;11.77;8.77;;;;;28.00;102047.00;;;;5097490;28;20194;-78
2021/06/04 07:46:09;;;;;;;11.80;8.38;;;;;28.10;102036.00;;;;5095605;28;20193;-77
2021/06/04 07:48:38;;;;;;;12.05;8.93;;;;;28.30;102041.00;;;;5104215;28;20197;-77
2021/06/04 07:51:06;;;;;;;10.77;8.30;;;;;28.40;102042.00;;;;5104851;28;20259;-78
2021/06/04 07:53:34;;;;;;;10.95;8.75;;;;;28.50;102047.00;;;;5098193;28;20229;-78
2021/06/04 07:56:03;;;;;;;12.77;7.95;;;;;28.60;102047.00;;;;5099116;28;20197;-79
2021/06/04 07:58:31;;;;;;;9.52;7.75;;;;;28.70;102053.00;;;;5098533;28;20208;-78
2021/06/04 08:00:59;;;;;;;10.90;8.35;;;;;28.80;102047.00;;;;5098221;28;20202;-79
2021/06/04 08:03:27;;;;;;;8.70;7.13;;;;;28.90;102049.00;;;;5096510;28;20573;-78
2021/06/04 08:05:55;;;;;;;11.43;7.50;;;;;28.90;102050.00;;;;5096841;28;20198;-78
2021/06/04 08:08:24;;;;;;;10.20;7.97;;;;;29.00;102044.00;;;;5097349;28;20197;-79
2021/06/04 08:10:51;;;;;;;11.05;7.97;;;;;29.10;102048.00;;;;5097600;28;20212;-78
2021/06/04 08:13:20;;;;;;;10.45;7.72;;;;;29.20;102047.00;;;;5099159;28;20325;-78
2021/06/04 08:15:51;;;;;;;9.43;8.25;;;;;29.30;102037.00;;;;5095913;28;20255;-78
2021/06/04 08:18:19;;;;;;;10.02;8.63;;;;;29.30;102035.00;;;;5097411;28;20189;-78
2021/06/04 08:20:46;;;;;;;9.23;6.45;;;;;29.40;102033.00;;;;5099220;28;20228;-78
2021/06/04 08:23:17;;;;;;;8.32;7.13;;;;;29.50;102035.00;;;;5099930;28;20660;-79
2021/06/04 08:25:49;;;;;;;8.27;6.72;;;;;29.60;102036.00;;;;5102089;28;20198;-78
2021/06/04 08:28:17;;;;;;;8.63;7.05;;;;;29.70;102036.00;;;;5102464;28;20198;-78
2021/06/04 08:30:45;;;;;;;9.88;6.80;;;;;29.80;102031.00;;;;5098963;28;20232;-78
2021/06/04 08:33:17;;;;;;;10.32;7.30;;;;;29.90;102035.00;;;;5101513;28;20232;-78
2021/06/04 08:35:44;;;;;;;8.80;7.07;;;;;30.00;102037.00;;;;5098842;28;20201;-78
2021/06/04 08:38:10;;;;;;;8.20;7.22;;;;;30.10;102031.00;;;;5097544;28;20707;-78
2021/06/04 08:40:39;;;;;;;9.18;6.57;;;;;30.20;102027.00;;;;5102191;28;20643;-78
2021/06/04 08:43:19;;;;;;;8.60;6.00;;;;;30.20;102023.00;;;;5104338;28;20227;-77
2021/06/04 08:45:51;;;;;;;8.88;6.90;;;;;30.40;102023.00;;;;5097739;28;20213;-78
2021/06/04 08:48:35;;;;;;;8.20;6.28;;;;;30.50;102027.00;;;;5089954;28;20209;-79
2021/06/04 08:51:13;;;;;;;10.27;7.22;;;;;30.60;102023.00;;;;5090612;28;20198;-78
2021/06/04 08:53:51;;;;;;;7.88;6.50;;;;;30.80;102027.00;;;;5090569;28;20226;-79
2021/06/04 08:56:24;;;;;;;10.10;6.68;;;;;30.90;102028.00;;;;5094710;28;20284;-78
2021/06/04 08:58:57;;;;;;;7.03;6.15;;;;;31.00;102021.00;;;;5102305;28;20202;-79
2021/06/04 09:01:28;;;;;;;6.55;5.85;;;;;31.20;102022.00;;;;5110169;28;20202;-78
2021/06/04 09:04:01;;;;;;;8.65;6.13;;;;;31.30;102023.00;;;;5110896;28;20671;-78
2021/06/04 09:06:33;;;;;;;7.25;6.22;;;;;31.40;102022.00;;;;5110355;28;20198;-79
2021/06/04 09:09:08;;;;;;;6.47;5.85;;;;;31.50;102018.00;;;;5111008;28;20667;-79
2021/06/04 09:11:39;;;;;;;8.30;6.45;;;;;31.70;102023.00;;;;5105120;28;20563;-79
2021/06/04 09:14:07;;;;;;;6.55;5.53;;;;;31.90;102022.00;;;;5106329;28;20218;-78
2021/06/04 09:16:44;;;;;;;8.27;4.95;;;;;31.90;102027.00;;;;5099383;28;20292;-77
2021/06/04 09:19:20;;;;;;;6.15;5.32;;;;;32.00;102023.00;;;;5101983;28;20209;-77
2021/06/04 09:21:47;;;;;;;6.93;5.68;;;;;32.00;102031.00;;;;5100090;28;20831;-78
2021/06/04 09:24:19;;;;;;;8.80;5.93;;;;;32.00;102027.00;;;;5094754;28;20201;-78
2021/06/04 09:26:47;;;;;;;9.68;5.45;;;;;31.90;102032.00;;;;5106104;28;20202;-77
2021/06/04 09:29:20;;;;;;;6.05;5.22;;;;;31.90;102032.00;;;;5101599;28;20198;-77
2021/06/04 09:31:49;;;;;;;8.80;5.30;;;;;32.00;102030.00;;;;5096446;28;20221;-78
2021/06/04 09:34:33;;;;;;;5.43;4.85;;;;;32.00;102025.00;;;;5109556;28;20220;-77
2021/06/04 09:37:03;;;;;;;5.70;4.88;;;;;32.20;102026.00;;;;5104682;28;20682;-77
2021/06/04 09:39:36;;;;;;;6.20;5.55;;;;;32.20;102030.00;;;;5110084;28;20197;-76
2021/06/04 09:42:19;;;;;;;5.80;5.20;;;;;32.10;102027.00;;;;5109947;28;20258;-75
2021/06/04 09:45:06;;;;;;;8.88;5.43;;;;;32.20;102022.00;;;;5108783;28;20220;-76
2021/06/04 09:47:36;;;;;;;5.75;4.45;;;;;32.30;102015.00;;;;5105787;28;20194;-76
2021/06/04 09:50:24;;;;;;;6.18;5.00;;;;;32.30;102027.00;;;;5089392;28;20289;-75
2021/06/04 09:53:04;;;;;;;6.75;4.80;;;;;32.40;102026.00;;;;5107497;28;20631;-76
2021/06/04 09:55:34;;;;;;;5.65;4.47;;;;;32.60;102023.00;;;;5108111;28;20959;-76
2021/06/04 09:58:09;;;;;;;4.82;4.07;;;;;32.60;102026.00;;;;5102548;28;20204;-75
2021/06/04 10:00:39;;;;;;;5.03;4.53;;;;;32.60;102015.00;;;;5091068;28;20189;-75
2021/06/04 10:03:23;;;;;;;5.30;4.40;;;;;32.60;102017.00;;;;5102821;27;20203;-76
2021/06/04 10:05:53;;;;;;;5.88;4.80;;;;;32.60;102018.00;;;;5104568;28;20216;-76
2021/06/04 10:08:25;;;;;;;5.07;4.53;;;;;32.50;102022.00;;;;5104579;28;20258;-76
2021/06/04 10:11:11;;;;;;;5.25;3.97;;;;;32.40;102024.00;;;;5108255;27;20235;-76
2021/06/04 10:13:48;;;;;;;6.18;4.65;;;;;32.50;102023.00;;;;5109023;28;20224;-76
2021/06/04 10:16:47;;;;;;;7.33;6.30;;;;;32.40;102020.00;;;;5108340;28;20441;-77
2021/06/04 10:19:19;;;;;;;6.13;4.93;;;;;32.50;102019.00;;;;5099541;28;21056;-76
2021/06/04 10:21:47;;;;;;;7.47;4.97;;;;;32.50;102015.00;;;;5097339;28;20205;-77
2021/06/04 10:24:26;;;;;;;6.15;4.90;;;;;32.40;102024.00;;;;5094243;28;20672;-76
2021/06/04 10:26:56;;;;;;;6.30;5.35;;;;;32.40;102023.00;;;;5103685;28;20224;-76
2021/06/04 10:29:24;;;;;;;6.32;5.40;;;;;32.40;102025.00;;;;5098434;28;20209;-76
2021/06/04 10:31:53;;;;;;;5.50;4.97;;;;;32.40;102031.00;;;;5098751;28;20222;-76
2021/06/04 10:34:47;;;;;;;6.25;4.88;;;;;32.30;102022.00;;;;5101576;28;20217;-78
2021/06/04 10:37:19;;;;;;;7.60;4.97;;;;;32.30;102026.00;;;;5108054;28;20229;-78
2021/06/04 10:39:49;;;;;;;5.03;4.53;;;;;32.30;102019.00;;;;5106310;28;20240;-79
2021/06/04 10:42:25;;;;;;;5.63;5.13;;;;;32.30;102020.00;;;;5108590;28;20205;-78
2021/06/04 10:45:05;;;;;;;6.78;5.75;;;;;32.30;102012.00;;;;5108359;28;20257;-77
2021/06/04 10:47:39;;;;;;;5.40;4.68;;;;;32.30;102016.00;;;;5087887;28;20695;-77
2021/06/04 10:50:15;;;;;;;6.20;5.53;;;;;32.30;102011.00;;;;5088303;28;20193;-78
2021/06/04 10:52:53;;;;;;;8.07;4.97;;;;;32.30;102016.00;;;;5102483;28;20224;-77
2021/06/04 10:55:25;;;;;;;7.70;5.68;;;;;32.40;102005.00;;;;5107863;28;20194;-77
2021/06/04 10:57:59;;;;;;;7.07;5.15;;;;;32.40;102006.00;;;;5107402;28;20198;-78
2021/06/04 11:00:30;;;;;;;6.38;5.35;;;;;32.40;101992.00;;;;5106941;28;20201;-78
2021/06/04 11:03:07;;;;;;;6.63;4.80;;;;;32.50;101994.00;;;;5108492;28;20270;-77
2021/06/04 11:05:53;;;;;;;5.20;4.70;;;;;32.50;101993.00;;;;5091262;28;20197;-78
2021/06/04 11:08:42;;;;;;;6.38;5.60;;;;;32.70;101985.00;;;;5099908;28;20198;-78
2021/06/04 11:11:26;;;;;;;7.15;4.75;;;;;32.80;101983.00;;;;5106990;28;20204;-77
2021/06/04 11:14:13;;;;;;;7.78;5.70;;;;;32.90;101979.00;;;;5101963;28;20678;-77
2021/06/04 11:16:48;;;;;;;6.00;5.13;;;;;32.90;101978.00;;;;5092034;28;20251;-77
2021/06/04 11:19:19;;;;;;;8.60;6.15;;;;;33.00;101978.00;;;;5095554;28;20628;-77
2021/06/04 11:21:50;;;;;;;8.32;5.55;;;;;33.00;101973.00;;;;5106394;28;20229;-78
2021/06/04 11:24:26;;;;;;;8.82;6.35;;;;;33.00;101981.00;;;;5107803;28;20279;-78
2021/06/04 11:26:55;;;;;;;7.78;5.25;;;;;33.00;101976.00;;;;5107744;28;20205;-78
2021/06/04 11:29:25;;;;;;;6.43;5.07;;;;;33.00;101973.00;;;;5107622;28;20246;-77
2021/06/04 11:32:07;;;;;;;8.82;6.43;;;;;32.90;101974.00;;;;5101594;28;20229;-77
2021/06/04 11:34:49;;;;;;;10.35;7.15;;;;;32.90;101973.00;;;;5094363;28;20233;-77
2021/06/04 11:37:23;;;;;;;10.00;6.32;;;;;32.90;101974.00;;;;5095594;28;20213;-77
2021/06/04 11:39:53;;;;;;;7.63;6.85;;;;;33.00;101968.00;;;;5093364;28;20201;-76
2021/06/04 11:42:25;;;;;;;8.75;6.75;;;;;33.00;101967.00;;;;5093978;28;20224;-77
2021/06/04 11:44:56;;;;;;;6.72;5.78;;;;;33.00;101966.00;;;;5099654;28;20208;-77
2021/06/04 11:47:37;;;;;;;10.25;6.68;;;;;33.00;101971.00;;;;5106687;28;20325;-77
2021/06/04 11:50:25;;;;;;;12.05;7.13;;;;;33.00;101966.00;;;;5097935;28;20201;-77
2021/06/04 11:53:12;;;;;;;7.50;6.03;;;;;33.00;101971.00;;;;5100875;28;20278;-77
2021/06/04 11:55:39;;;;;;;7.45;6.10;;;;;33.00;101964.00;;;;5096193;28;20248;-77
2021/06/04 11:58:18;;;;;;;8.20;6.35;;;;;32.90;101956.00;;;;5096926;28;20596;-76
2021/06/04 12:00:46;;;;;;;6.45;5.85;;;;;33.00;101955.00;;;;5094775;28;20189;-78
2021/06/04 12:03:36;;;;;;;9.98;6.65;;;;;32.90;101948.00;;;;5093522;28;20200;-77
2021/06/04 12:06:44;;;;;;;7.07;5.05;;;;;32.80;101939.00;;;;5089023;28;20618;-78
2021/06/04 12:09:40;;;;;;;6.20;4.85;;;;;32.90;101949.00;;;;5069285;28;20197;-78
2021/06/04 12:12:32;;;;;;;7.78;5.70;;;;;32.90;101948.00;;;;5099091;28;20229;-77
2021/06/04 12:15:26;;;;;;;7.32;5.45;;;;;32.90;101944.00;;;;5101278;28;20205;-77
2021/06/04 12:17:53;;;;;;;5.75;4.90;;;;;33.00;101947.00;;;;5102037;28;20201;-78
2021/06/04 12:20:36;;;;;;;7.03;5.43;;;;;32.90;101941.00;;;;5090525;28;20294;-79
2021/06/04 12:23:08;;;;;;;7.10;5.45;;;;;32.90;101942.00;;;;5093470;28;20194;-78
2021/06/04 12:25:56;;;;;;;6.80;4.93;;;;;32.90;101935.00;;;;5094243;28;20308;-78
2021/06/04 12:28:38;;;;;;;9.45;6.38;;;;;32.90;101936.00;;;;5093305;28;20280;-77